createdAt,value
2023-04-18T00:00:27.756Z,84.90
2023-04-18T00:02:55.209Z,84.91
2023-04-18T00:05:22.260Z,85.59
2023-04-18T00:07:48.849Z,85.46
2023-04-18T00:10:15.535Z,85.61
2023-04-18T00:12:42.951Z,84.70
2023-04-18T00:15:10.426Z,85.57
2023-04-18T00:17:40.157Z,85.69
2023-04-18T00:20:10.859Z,86.12
2023-04-18T00:22:42.568Z,85.54
2023-04-18T00:25:10.564Z,85.81
2023-04-18T00:27:38.682Z,85.65
2023-04-18T00:30:09.058Z,85.91
2023-04-18T00:32:35.687Z,86.81
2023-04-18T00:35:02.451Z,86.68
2023-04-18T00:37:29.503Z,86.45
2023-04-18T00:39:55.992Z,85.94
2023-04-18T00:42:22.867Z,86.32
2023-04-18T00:44:49.413Z,86.41
2023-04-18T00:47:19.714Z,87.28
2023-04-18T00:49:47.593Z,86.45
2023-04-18T00:52:15.438Z,86.42
2023-04-18T00:54:43.014Z,86.48
2023-04-18T00:57:09.495Z,86.90
2023-04-18T00:59:36.077Z,87.42
2023-04-18T01:02:04.038Z,87.50
2023-04-18T01:04:32.600Z,87.75
2023-04-18T01:07:00.471Z,87.54
2023-04-18T01:09:27.159Z,87.60
2023-04-18T01:11:53.663Z,87.99
2023-04-18T01:14:20.732Z,88.24
2023-04-18T01:16:48.292Z,88.62
2023-04-18T01:19:17.367Z,88.35
2023-04-18T01:21:44.759Z,87.79
2023-04-18T01:24:15.912Z,88.19
2023-04-18T01:26:45.820Z,88.95
2023-04-18T01:29:12.376Z,88.97
2023-04-18T01:31:40.284Z,89.36
2023-04-18T01:34:07.841Z,90.15
2023-04-18T01:36:36.025Z,90.01
2023-04-18T01:39:02.637Z,90.18
2023-04-18T01:41:32.287Z,90.41
2023-04-18T01:43:59.522Z,91.75
2023-04-18T01:46:26.135Z,91.59
2023-04-18T01:48:53.015Z,92.05
2023-04-18T01:51:19.694Z,92.63
2023-04-18T01:53:46.131Z,91.97
2023-04-18T01:56:12.746Z,92.35
2023-04-18T01:58:39.374Z,93.30
2023-04-18T02:01:05.906Z,92.50
2023-04-18T02:03:32.549Z,92.42
2023-04-18T02:06:00.609Z,92.38
2023-04-18T02:08:27.157Z,93.46
2023-04-18T02:10:53.652Z,93.66
2023-04-18T02:13:20.189Z,93.34
2023-04-18T02:15:46.624Z,93.79
2023-04-18T02:18:13.268Z,93.63
2023-04-18T02:20:39.957Z,93.92
2023-04-18T02:23:07.077Z,93.49
2023-04-18T02:25:33.553Z,94.15
2023-04-18T02:28:00.040Z,94.48
2023-04-18T02:30:26.811Z,94.24
2023-04-18T02:32:54.694Z,94.01
2023-04-18T02:35:21.543Z,94.34
2023-04-18T02:37:48.067Z,93.97
2023-04-18T02:40:14.738Z,93.81
2023-04-18T02:42:41.253Z,94.12
2023-04-18T02:45:08.790Z,94.06
2023-04-18T02:47:46.998Z,94.12
2023-04-18T02:50:20.796Z,94.13
2023-04-18T02:52:47.394Z,93.11
2023-04-18T02:55:13.873Z,93.62
2023-04-18T02:57:40.274Z,93.42
2023-04-18T03:00:08.456Z,93.74
2023-04-18T03:02:35.122Z,93.70
2023-04-18T03:05:01.822Z,93.68
2023-04-18T03:07:28.384Z,93.38
2023-04-18T03:09:54.842Z,93.51
2023-04-18T03:12:21.363Z,93.93
2023-04-18T03:14:47.859Z,93.14
2023-04-18T03:17:14.416Z,93.22
2023-04-18T03:19:40.932Z,93.97
2023-04-18T03:22:07.409Z,94.24
2023-04-18T03:24:33.915Z,93.55
2023-04-18T03:27:00.680Z,93.88
2023-04-18T03:29:27.149Z,93.89
2023-04-18T03:31:53.655Z,93.01
2023-04-18T03:34:20.422Z,92.98
2023-04-18T03:36:48.207Z,93.75
2023-04-18T03:39:14.878Z,92.83
2023-04-18T03:41:41.329Z,93.40
2023-04-18T03:44:08.877Z,92.54
2023-04-18T03:46:35.551Z,92.58
2023-04-18T03:49:02.083Z,92.85
2023-04-18T03:51:34.141Z,93.16
2023-04-18T03:54:00.789Z,92.70
2023-04-18T03:56:27.437Z,92.80
2023-04-18T03:58:53.958Z,92.51
2023-04-18T04:01:21.595Z,92.18
2023-04-18T04:03:48.289Z,92.52
2023-04-18T04:06:14.920Z,92.60
2023-04-18T04:08:41.749Z,92.12
2023-04-18T04:11:08.192Z,92.70
2023-04-18T04:13:36.037Z,92.63
2023-04-18T04:16:02.722Z,92.52
2023-04-18T04:18:31.225Z,92.92
2023-04-18T04:20:59.240Z,92.36
2023-04-18T04:23:26.800Z,92.78
2023-04-18T04:25:54.208Z,92.21
2023-04-18T04:28:23.836Z,92.73
2023-04-18T04:30:50.865Z,93.26
2023-04-18T04:33:21.072Z,92.76
2023-04-18T04:35:47.928Z,92.69
2023-04-18T04:38:15.400Z,92.31
2023-04-18T04:40:42.686Z,91.75
2023-04-18T04:43:12.516Z,92.59
2023-04-18T04:45:42.206Z,92.91
2023-04-18T04:48:09.295Z,93.08
2023-04-18T04:50:37.384Z,92.17
2023-04-18T04:53:07.696Z,92.71
2023-04-18T04:55:34.610Z,92.09
2023-04-18T04:58:01.117Z,91.94
2023-04-18T05:00:28.845Z,92.50
2023-04-18T05:02:56.290Z,91.50
2023-04-18T05:05:23.120Z,92.07
2023-04-18T05:07:49.607Z,91.24
2023-04-18T05:10:16.227Z,91.77
2023-04-18T05:12:42.756Z,91.50
2023-04-18T05:15:09.590Z,91.05
2023-04-18T05:17:36.035Z,91.16
2023-04-18T05:20:02.998Z,91.69
2023-04-18T05:22:29.513Z,91.11
2023-04-18T05:24:56.020Z,91.83
2023-04-18T05:27:22.606Z,92.25
2023-04-18T05:29:50.241Z,92.31
2023-04-18T05:32:16.788Z,92.44
2023-04-18T05:34:43.403Z,93.78
2023-04-18T05:37:09.918Z,94.40
2023-04-18T05:39:37.759Z,93.75
2023-04-18T05:42:04.283Z,94.24
2023-04-18T05:44:30.769Z,93.70
2023-04-18T05:46:57.250Z,95.19
2023-04-18T05:49:23.733Z,95.05
2023-04-18T05:51:50.665Z,94.21
2023-04-18T05:54:17.242Z,93.25
2023-04-18T05:56:43.876Z,94.08
2023-04-18T05:59:10.774Z,92.60
2023-04-18T06:01:37.220Z,92.56
2023-04-18T06:04:03.909Z,91.77
2023-04-18T06:06:31.450Z,91.00
2023-04-18T06:08:57.998Z,91.10
2023-04-18T06:11:24.488Z,89.45
2023-04-18T06:13:51.017Z,88.79
2023-04-18T06:16:18.676Z,88.83
2023-04-18T06:18:45.270Z,89.13
2023-04-18T06:21:13.126Z,87.84
2023-04-18T06:23:39.651Z,87.44
2023-04-18T06:26:07.155Z,85.18
2023-04-18T06:28:33.614Z,86.01
2023-04-18T06:31:00.310Z,85.89
2023-04-18T06:33:26.881Z,85.81
2023-04-18T06:35:53.424Z,85.69
2023-04-18T06:38:20.440Z,85.12
2023-04-18T06:40:46.884Z,85.25
2023-04-18T06:43:13.303Z,84.47
2023-04-18T06:45:40.267Z,83.69
2023-04-18T06:48:08.940Z,85.17
2023-04-18T06:50:35.520Z,85.35
2023-04-18T06:53:02.290Z,84.97
2023-04-18T06:55:28.884Z,84.63
2023-04-18T06:57:55.585Z,84.24
2023-04-18T07:00:22.347Z,82.89
2023-04-18T07:02:49.132Z,80.92
2023-04-18T07:05:15.731Z,81.13
2023-04-18T07:07:42.182Z,80.32
2023-04-18T07:10:09.861Z,79.10
2023-04-18T07:12:36.433Z,79.93
2023-04-18T07:15:03.870Z,79.43
2023-04-18T07:17:30.604Z,79.26
2023-04-18T07:19:57.229Z,77.95
2023-04-18T07:22:23.751Z,78.83
2023-04-18T07:24:50.366Z,78.85
2023-04-18T07:27:16.887Z,78.91
2023-04-18T07:29:43.389Z,78.05
2023-04-18T07:32:10.862Z,78.01
2023-04-18T07:34:37.525Z,77.25
2023-04-18T07:37:04.195Z,76.30
2023-04-18T07:39:35.765Z,77.02
2023-04-18T07:42:03.698Z,77.26
2023-04-18T07:44:30.333Z,77.56
2023-04-18T07:46:57.117Z,77.07
2023-04-18T07:49:23.712Z,77.33
2023-04-18T07:51:50.202Z,76.69
2023-04-18T07:54:16.702Z,76.73
2023-04-18T07:56:43.150Z,75.96
2023-04-18T07:59:09.590Z,75.47
2023-04-18T08:01:36.122Z,74.92
2023-04-18T08:04:02.730Z,75.03
2023-04-18T08:06:29.438Z,74.46
2023-04-18T08:08:56.014Z,72.17
2023-04-18T08:11:22.625Z,73.33
2023-04-18T08:13:49.126Z,72.56
2023-04-18T08:16:17.439Z,72.25
2023-04-18T08:18:44.344Z,72.47
2023-04-18T08:21:11.034Z,72.89
2023-04-18T08:23:37.676Z,72.08
2023-04-18T08:26:04.315Z,71.86
2023-04-18T08:28:30.828Z,71.91
2023-04-18T08:30:57.385Z,71.81
2023-04-18T08:33:24.544Z,71.20
2023-04-18T08:35:51.871Z,71.15
2023-04-18T08:38:19.116Z,71.67
2023-04-18T08:40:46.392Z,70.04
2023-04-18T08:43:15.045Z,70.04
2023-04-18T08:45:43.205Z,70.02
2023-04-18T08:48:13.808Z,68.92
2023-04-18T08:50:41.516Z,68.59
2023-04-18T08:53:08.397Z,67.95
2023-04-18T08:55:35.653Z,67.94
2023-04-18T08:58:04.836Z,68.37
2023-04-18T09:00:31.394Z,68.05
2023-04-18T09:02:58.276Z,67.45
2023-04-18T09:05:26.733Z,67.32
2023-04-18T09:07:54.886Z,65.17
2023-04-18T09:10:40.371Z,65.89
2023-04-18T09:13:09.976Z,66.98
2023-04-18T09:15:36.507Z,66.45
2023-04-18T09:18:03.457Z,65.99
2023-04-18T09:20:38.345Z,66.44
2023-04-18T09:23:14.789Z,64.96
2023-04-18T09:25:43.599Z,66.60
2023-04-18T09:28:31.811Z,65.97
2023-04-18T09:31:19.055Z,65.85
2023-04-18T09:33:54.511Z,66.09
2023-04-18T09:36:22.238Z,66.08
2023-04-18T09:38:51.653Z,66.14
2023-04-18T09:41:21.389Z,66.73
2023-04-18T09:43:48.433Z,66.54
2023-04-18T09:46:17.472Z,67.41
2023-04-18T09:48:44.103Z,65.68
2023-04-18T09:51:14.409Z,65.55
2023-04-18T09:53:44.686Z,66.15
2023-04-18T09:56:32.293Z,65.14
2023-04-18T09:59:28.811Z,64.33
2023-04-18T10:01:58.174Z,64.31
2023-04-18T10:04:25.890Z,63.79
2023-04-18T10:06:54.184Z,64.21
2023-04-18T10:09:22.265Z,63.83
2023-04-18T10:11:48.834Z,64.51
2023-04-18T10:14:16.596Z,63.67
2023-04-18T10:16:45.574Z,63.89
2023-04-18T10:19:26.397Z,62.42
2023-04-18T10:21:57.428Z,63.10
2023-04-18T10:24:49.772Z,62.83
2023-04-18T10:27:18.125Z,63.47
2023-04-18T10:29:54.303Z,63.56
2023-04-18T10:32:23.881Z,63.48
2023-04-18T10:34:53.460Z,64.14
2023-04-18T10:37:20.251Z,64.42
2023-04-18T10:39:58.181Z,63.89
2023-04-18T10:42:52.617Z,64.14
2023-04-18T10:45:23.832Z,63.18
2023-04-18T10:47:50.747Z,63.13
2023-04-18T10:50:17.858Z,63.90
2023-04-18T10:52:44.406Z,64.08
2023-04-18T10:55:18.015Z,64.19
2023-04-18T10:57:48.732Z,64.04
2023-04-18T11:00:17.981Z,62.30
2023-04-18T11:02:53.693Z,62.75
2023-04-18T11:05:23.234Z,64.03
2023-04-18T11:07:50.279Z,63.45
2023-04-18T11:10:22.001Z,64.18
2023-04-18T11:12:48.806Z,64.48
2023-04-18T11:15:23.371Z,64.48
2023-04-18T11:17:58.613Z,63.13
2023-04-18T11:20:25.595Z,63.98
2023-04-18T11:22:57.771Z,64.36
2023-04-18T11:25:34.982Z,65.11
2023-04-18T11:28:04.452Z,64.10
2023-04-18T11:30:38.755Z,63.86
2023-04-18T11:33:09.898Z,64.23
2023-04-18T11:35:40.998Z,63.67
2023-04-18T11:38:08.746Z,64.67
2023-04-18T11:40:36.561Z,64.71
2023-04-18T11:43:05.027Z,64.40
2023-04-18T11:45:31.643Z,63.76
2023-04-18T11:47:59.561Z,62.38
2023-04-18T11:50:26.786Z,62.15
2023-04-18T11:52:55.009Z,62.50
2023-04-18T11:55:24.794Z,62.77
2023-04-18T11:57:56.797Z,62.68
2023-04-18T12:00:40.122Z,62.28
2023-04-18T12:03:15.594Z,61.51
2023-04-18T12:05:42.604Z,62.49
2023-04-18T12:08:14.295Z,62.22
2023-04-18T12:10:51.416Z,61.78
2023-04-18T12:13:18.999Z,61.74
2023-04-18T12:15:46.800Z,62.17
2023-04-18T12:18:15.362Z,62.11
2023-04-18T12:20:53.938Z,62.81
2023-04-18T12:23:35.699Z,62.36
2023-04-18T12:26:05.894Z,62.99
2023-04-18T12:28:35.848Z,62.54
2023-04-18T12:31:05.887Z,62.55
2023-04-18T12:33:38.674Z,62.58
2023-04-18T12:36:06.073Z,62.09
2023-04-18T12:38:32.908Z,62.50
2023-04-18T12:40:59.590Z,62.71
2023-04-18T12:43:26.677Z,62.87
2023-04-18T12:45:53.235Z,62.77
2023-04-18T12:48:19.706Z,62.53
2023-04-18T12:50:46.189Z,62.55
2023-04-18T12:53:12.716Z,62.60
2023-04-18T12:55:39.237Z,62.81
2023-04-18T12:58:05.747Z,62.30
2023-04-18T13:00:32.863Z,61.23
2023-04-18T13:03:00.037Z,60.39
2023-04-18T13:05:31.548Z,60.96
2023-04-18T13:08:15.154Z,60.75
2023-04-18T13:10:43.423Z,60.91
2023-04-18T13:13:10.006Z,61.18
2023-04-18T13:15:36.605Z,61.24
2023-04-18T13:18:06.077Z,61.03
2023-04-18T13:20:33.711Z,61.96
2023-04-18T13:23:00.373Z,60.97
2023-04-18T13:25:27.289Z,60.77
2023-04-18T13:27:53.818Z,60.18
2023-04-18T13:30:20.603Z,58.36
2023-04-18T13:32:47.302Z,57.99
2023-04-18T13:35:13.844Z,57.84
2023-04-18T13:37:40.425Z,57.48
2023-04-18T13:40:08.010Z,57.55
2023-04-18T13:42:36.406Z,56.76
2023-04-18T13:45:03.321Z,57.84
2023-04-18T13:47:29.965Z,57.19
2023-04-18T13:49:57.692Z,57.37
2023-04-18T13:52:24.569Z,57.94
2023-04-18T13:54:51.093Z,58.56
2023-04-18T13:57:17.556Z,59.31
2023-04-18T13:59:44.021Z,59.27
2023-04-18T14:02:10.946Z,59.56
2023-04-18T14:04:37.826Z,58.36
2023-04-18T14:07:06.227Z,58.41
2023-04-18T14:09:32.969Z,57.29
2023-04-18T14:11:59.556Z,58.40
2023-04-18T14:14:26.043Z,57.62
2023-04-18T14:16:53.771Z,57.26
2023-04-18T14:19:20.581Z,58.22
2023-04-18T14:21:47.903Z,58.61
2023-04-18T14:24:14.506Z,59.04
2023-04-18T14:26:41.075Z,59.00
2023-04-18T14:29:07.713Z,58.99
2023-04-18T14:31:34.837Z,59.66
2023-04-18T14:34:01.605Z,60.64
2023-04-18T14:36:28.189Z,60.66
2023-04-18T14:38:55.115Z,60.92
2023-04-18T14:41:21.828Z,61.74
2023-04-18T14:43:48.786Z,61.95
2023-04-18T14:46:19.027Z,60.92
2023-04-18T14:48:48.483Z,61.33
2023-04-18T14:51:17.228Z,61.48
2023-04-18T14:53:44.666Z,61.66
2023-04-18T14:56:11.552Z,60.46
2023-04-18T14:58:38.256Z,60.35
2023-04-18T15:01:05.178Z,60.83
2023-04-18T15:03:31.808Z,61.14
2023-04-18T15:05:58.539Z,59.96
2023-04-18T15:08:25.218Z,60.48
2023-04-18T15:10:51.625Z,60.31
2023-04-18T15:13:18.310Z,60.16
2023-04-18T15:15:51.675Z,59.79
2023-04-18T15:18:18.138Z,59.00
2023-04-18T15:20:44.731Z,58.96
2023-04-18T15:23:13.708Z,58.97
2023-04-18T15:25:41.553Z,58.28
2023-04-18T15:28:08.527Z,58.67
2023-04-18T15:30:35.342Z,59.24
2023-04-18T15:33:02.505Z,58.72
2023-04-18T15:35:29.117Z,58.50
2023-04-18T15:37:56.641Z,58.76
2023-04-18T15:40:23.609Z,58.48
2023-04-18T15:42:51.002Z,58.53
2023-04-18T15:45:17.664Z,58.11
2023-04-18T15:47:44.242Z,57.21
2023-04-18T15:50:11.141Z,56.42
2023-04-18T15:52:38.063Z,55.82
2023-04-18T15:55:05.256Z,56.12
2023-04-18T15:57:32.357Z,57.35
2023-04-18T15:59:59.668Z,57.47
2023-04-18T16:02:26.737Z,57.38
2023-04-18T16:04:53.397Z,57.64
2023-04-18T16:07:19.918Z,57.86
2023-04-18T16:09:46.505Z,58.56
2023-04-18T16:12:13.124Z,58.78
2023-04-18T16:14:40.141Z,59.10
2023-04-18T16:17:06.676Z,57.74
2023-04-18T16:19:35.068Z,56.22
2023-04-18T16:22:03.111Z,56.75
2023-04-18T16:24:30.835Z,57.12
2023-04-18T16:26:58.652Z,57.50
2023-04-18T16:29:25.306Z,57.32
2023-04-18T16:31:52.139Z,58.13
2023-04-18T16:34:18.671Z,58.45
2023-04-18T16:36:45.181Z,58.82
2023-04-18T16:39:12.013Z,59.20
2023-04-18T16:41:38.626Z,59.46
2023-04-18T16:44:05.395Z,59.49
2023-04-18T16:46:32.407Z,59.57
2023-04-18T16:48:59.382Z,59.58
2023-04-18T16:51:26.549Z,59.80
2023-04-18T16:53:53.151Z,59.72
2023-04-18T16:56:19.872Z,59.27
2023-04-18T16:58:46.781Z,60.02
2023-04-18T17:01:13.323Z,60.60
2023-04-18T17:03:40.006Z,60.11
2023-04-18T17:06:09.160Z,60.56
2023-04-18T17:08:35.966Z,61.01
2023-04-18T17:11:02.646Z,60.79
2023-04-18T17:13:31.694Z,61.00
2023-04-18T17:15:58.771Z,61.36
2023-04-18T17:18:25.671Z,61.44
2023-04-18T17:20:52.465Z,62.47
2023-04-18T17:23:19.320Z,62.31
2023-04-18T17:25:46.251Z,62.69
2023-04-18T17:28:13.846Z,62.87
2023-04-18T17:30:41.903Z,62.97
2023-04-18T17:33:09.652Z,63.81
2023-04-18T17:35:36.238Z,64.04
2023-04-18T17:38:03.340Z,63.95
2023-04-18T17:40:30.018Z,64.13
2023-04-18T17:42:56.652Z,64.61
2023-04-18T17:45:23.227Z,64.53
2023-04-18T17:47:50.835Z,64.67
2023-04-18T17:50:17.786Z,64.97
2023-04-18T17:52:46.353Z,65.42
2023-04-18T17:55:13.194Z,65.72
2023-04-18T17:57:39.845Z,65.51
2023-04-18T18:00:10.456Z,65.80
2023-04-18T18:02:37.900Z,66.11
2023-04-18T18:05:05.550Z,66.25
2023-04-18T18:07:34.831Z,66.04
2023-04-18T18:10:02.502Z,65.95
2023-04-18T18:12:29.122Z,66.37
2023-04-18T18:14:57.249Z,66.43
2023-04-18T18:17:24.571Z,66.20
2023-04-18T18:19:51.111Z,66.47
2023-04-18T18:22:17.991Z,66.68
2023-04-18T18:24:44.502Z,66.88
2023-04-18T18:27:12.295Z,66.03
2023-04-18T18:29:38.856Z,66.35
2023-04-18T18:32:05.853Z,66.43
2023-04-18T18:34:32.773Z,67.00
2023-04-18T18:36:59.235Z,66.50
2023-04-18T18:39:25.820Z,66.82
2023-04-18T18:41:52.860Z,67.08
2023-04-18T18:44:19.713Z,66.90
2023-04-18T18:46:46.976Z,67.26
2023-04-18T18:49:14.121Z,67.50
2023-04-18T18:51:41.295Z,67.57
2023-04-18T18:54:08.024Z,67.16
2023-04-18T18:56:34.646Z,67.50
2023-04-18T18:59:01.364Z,67.31
2023-04-18T19:01:30.206Z,67.19
2023-04-18T19:03:56.987Z,67.62
2023-04-18T19:06:24.010Z,67.46
2023-04-18T19:08:50.820Z,67.58
2023-04-18T19:11:18.819Z,67.92
2023-04-18T19:13:45.822Z,68.27
2023-04-18T19:16:12.573Z,67.79
2023-04-18T19:18:40.804Z,68.09
2023-04-18T19:21:07.615Z,68.63
2023-04-18T19:23:34.382Z,68.81
2023-04-18T19:26:00.863Z,68.39
2023-04-18T19:28:27.796Z,68.52
2023-04-18T19:30:54.355Z,68.63
2023-04-18T19:33:21.331Z,68.31
2023-04-18T19:35:48.092Z,69.05
2023-04-18T19:38:14.596Z,69.54
2023-04-18T19:40:41.363Z,69.98
2023-04-18T19:43:08.137Z,69.74
2023-04-18T19:45:34.764Z,69.51
2023-04-18T19:48:01.411Z,69.77
2023-04-18T19:50:28.359Z,69.47
2023-04-18T19:52:54.987Z,69.72
2023-04-18T19:55:21.857Z,70.02
2023-04-18T19:57:48.880Z,70.16
2023-04-18T20:00:16.049Z,70.78
2023-04-18T20:02:42.915Z,70.79
2023-04-18T20:05:10.179Z,70.68
2023-04-18T20:07:37.078Z,70.58
2023-04-18T20:10:04.525Z,70.32
2023-04-18T20:12:31.395Z,70.75
2023-04-18T20:14:58.946Z,71.47
2023-04-18T20:17:26.220Z,71.89
2023-04-18T20:19:53.070Z,71.93
2023-04-18T20:22:19.844Z,72.24
2023-04-18T20:24:48.142Z,72.05
2023-04-18T20:27:15.306Z,72.86
2023-04-18T20:29:41.942Z,73.87
2023-04-18T20:32:08.533Z,73.95
2023-04-18T20:34:35.827Z,73.71
2023-04-18T20:37:02.358Z,74.00
2023-04-18T20:39:28.832Z,74.09
2023-04-18T20:41:57.607Z,73.36
2023-04-18T20:44:24.927Z,73.40
2023-04-18T20:46:53.973Z,73.65
2023-04-18T20:49:20.574Z,74.05
2023-04-18T20:51:47.119Z,74.23
2023-04-18T20:54:13.972Z,73.94
2023-04-18T20:56:40.827Z,74.07
2023-04-18T20:59:07.349Z,74.24
2023-04-18T21:01:35.450Z,73.43
2023-04-18T21:04:03.338Z,73.31
2023-04-18T21:06:29.950Z,73.17
2023-04-18T21:08:56.447Z,73.38
2023-04-18T21:11:23.538Z,73.24
2023-04-18T21:13:50.070Z,73.29
2023-04-18T21:16:16.749Z,73.46
2023-04-18T21:18:43.292Z,73.77
2023-04-18T21:21:09.804Z,73.36
2023-04-18T21:23:43.376Z,74.19
2023-04-18T21:26:13.378Z,74.27
2023-04-18T21:28:58.183Z,74.02
2023-04-18T21:31:26.685Z,73.73
2023-04-18T21:33:57.417Z,73.53
2023-04-18T21:36:26.348Z,73.94
2023-04-18T21:38:54.000Z,72.94
2023-04-18T21:41:20.923Z,71.63
2023-04-18T21:43:47.895Z,71.48
2023-04-18T21:46:14.974Z,71.46
2023-04-18T21:48:43.484Z,71.53
2023-04-18T21:51:11.556Z,71.43
2023-04-18T21:53:38.916Z,72.03
2023-04-18T21:56:06.059Z,71.85
2023-04-18T21:58:32.872Z,72.31
2023-04-18T22:00:59.724Z,71.16
2023-04-18T22:03:28.427Z,70.44
2023-04-18T22:05:58.445Z,67.36
2023-04-18T22:08:28.276Z,65.35
2023-04-18T22:10:56.436Z,65.74
2023-04-18T22:13:23.767Z,60.91
2023-04-18T22:15:51.487Z,60.96
2023-04-18T22:18:18.968Z,60.29
2023-04-18T22:20:46.888Z,62.78
2023-04-18T22:23:14.246Z,63.59
2023-04-18T22:25:40.915Z,64.98
2023-04-18T22:28:07.701Z,69.38
2023-04-18T22:30:34.355Z,70.83
2023-04-18T22:33:00.912Z,71.45
2023-04-18T22:35:27.472Z,73.66
2023-04-18T22:37:55.287Z,73.52
2023-04-18T22:40:21.776Z,72.34
2023-04-18T22:42:48.329Z,71.14
2023-04-18T22:45:15.515Z,71.11
2023-04-18T22:47:42.042Z,65.42
2023-04-18T22:50:08.915Z,63.52
2023-04-18T22:52:35.555Z,61.47
2023-04-18T22:55:02.953Z,57.56
2023-04-18T22:57:29.737Z,57.44
2023-04-18T22:59:56.448Z,58.45
2023-04-18T23:02:23.205Z,56.91
2023-04-18T23:04:50.632Z,58.61
2023-04-18T23:07:17.192Z,58.25
2023-04-18T23:09:43.698Z,58.29
2023-04-18T23:12:10.149Z,57.39
2023-04-18T23:14:36.641Z,57.33
2023-04-18T23:17:03.184Z,57.96
2023-04-18T23:19:29.658Z,59.21
2023-04-18T23:21:56.162Z,56.31
2023-04-18T23:24:22.625Z,57.09
2023-04-18T23:26:49.048Z,56.16
2023-04-18T23:29:15.571Z,56.48
2023-04-18T23:31:42.101Z,56.69
2023-04-18T23:34:09.934Z,56.45
2023-04-18T23:36:37.171Z,58.20
2023-04-18T23:39:04.266Z,57.45
2023-04-18T23:41:30.821Z,58.34
2023-04-18T23:43:57.311Z,60.13
2023-04-18T23:46:23.864Z,60.05
2023-04-18T23:48:50.362Z,60.37
2023-04-18T23:51:16.873Z,60.43
2023-04-18T23:53:43.349Z,60.77
2023-04-18T23:56:10.007Z,60.40
2023-04-18T23:58:36.450Z,60.51
